createdAt,value
2022-10-20T00:02:03.892Z,5.33
2022-10-20T00:04:35.668Z,5.77
2022-10-20T00:07:07.368Z,6.07
2022-10-20T00:09:39.107Z,6.10
2022-10-20T00:12:10.872Z,6.33
2022-10-20T00:14:42.599Z,5.80
2022-10-20T00:17:14.350Z,5.37
2022-10-20T00:19:48.379Z,5.60
2022-10-20T00:22:20.111Z,5.43
2022-10-20T00:24:52.282Z,5.33
2022-10-20T00:27:24.010Z,5.90
2022-10-20T00:29:55.722Z,5.10
2022-10-20T00:32:27.672Z,6.17
2022-10-20T00:34:59.444Z,6.40
2022-10-20T00:37:31.190Z,5.37
2022-10-20T00:40:03.012Z,5.80
2022-10-20T00:42:34.914Z,5.73
2022-10-20T00:45:14.245Z,6.10
2022-10-20T00:48:06.675Z,5.47
2022-10-20T00:50:43.491Z,6.07
2022-10-20T00:53:17.197Z,5.73
2022-10-20T00:55:51.076Z,6.30
2022-10-20T00:58:23.078Z,5.83
2022-10-20T01:00:57.858Z,6.80
2022-10-20T01:03:41.989Z,5.57
2022-10-20T01:08:53.054Z,5.37
2022-10-20T01:11:52.482Z,6.17
2022-10-20T01:14:26.949Z,5.83
2022-10-20T01:17:10.231Z,5.93
2022-10-20T01:20:15.548Z,5.83
2022-10-20T01:23:12.839Z,5.77
2022-10-20T01:25:56.235Z,5.43
2022-10-20T01:28:50.386Z,6.10
2022-10-20T01:31:42.342Z,5.40
2022-10-20T01:34:55.023Z,5.07
2022-10-20T01:37:48.948Z,5.73
2022-10-20T01:40:29.070Z,5.50
2022-10-20T01:43:05.824Z,5.60
2022-10-20T01:45:42.088Z,5.80
2022-10-20T01:48:17.412Z,5.40
2022-10-20T01:50:50.627Z,5.47
2022-10-20T01:53:22.348Z,5.57
2022-10-20T01:55:56.323Z,5.13
2022-10-20T01:59:02.083Z,5.33
2022-10-20T02:02:01.653Z,4.53
2022-10-20T02:05:05.554Z,5.23
2022-10-20T02:07:38.252Z,4.63
2022-10-20T02:10:27.457Z,5.57
2022-10-20T02:13:04.200Z,5.13
2022-10-20T02:15:40.784Z,5.60
2022-10-20T02:18:16.531Z,5.10
2022-10-20T02:20:51.575Z,5.53
2022-10-20T02:23:23.725Z,4.93
2022-10-20T02:25:57.282Z,4.87
2022-10-20T02:28:30.844Z,5.30
2022-10-20T02:31:03.995Z,4.63
2022-10-20T02:33:36.151Z,5.10
2022-10-20T02:36:15.594Z,5.40
2022-10-20T02:38:47.549Z,4.73
2022-10-20T02:41:19.329Z,4.70
2022-10-20T02:43:51.047Z,5.37
2022-10-20T02:46:23.379Z,5.47
2022-10-20T02:48:55.084Z,4.83
2022-10-20T02:51:26.875Z,4.43
2022-10-20T02:53:58.560Z,4.30
2022-10-20T02:56:31.108Z,4.90
2022-10-20T02:59:03.075Z,4.67
2022-10-20T03:01:34.807Z,4.93
2022-10-20T03:04:06.569Z,4.57
2022-10-20T03:06:38.459Z,5.37
2022-10-20T03:09:10.341Z,5.30
2022-10-20T03:11:42.042Z,5.37
2022-10-20T03:14:13.810Z,5.67
2022-10-20T03:16:45.532Z,5.47
2022-10-20T03:19:17.312Z,5.77
2022-10-20T03:21:49.633Z,6.10
2022-10-20T03:24:21.335Z,5.60
2022-10-20T03:26:53.044Z,5.57
2022-10-20T03:29:24.762Z,5.17
2022-10-20T03:31:56.566Z,5.30
2022-10-20T03:34:28.339Z,5.03
2022-10-20T03:37:00.234Z,5.27
2022-10-20T03:39:32.012Z,5.70
2022-10-20T03:42:03.887Z,5.50
2022-10-20T03:44:35.587Z,5.77
2022-10-20T03:47:07.648Z,5.80
2022-10-20T03:49:39.560Z,6.27
2022-10-20T03:52:11.266Z,5.53
2022-10-20T03:54:43.007Z,6.00
2022-10-20T03:57:14.768Z,6.77
2022-10-20T03:59:46.733Z,5.47
2022-10-20T04:02:45.722Z,5.50
2022-10-20T04:05:20.060Z,5.70
2022-10-20T04:07:51.788Z,5.47
2022-10-20T04:10:23.564Z,4.97
2022-10-20T04:12:58.229Z,6.50
2022-10-20T04:15:30.761Z,5.47
2022-10-20T04:18:02.446Z,5.93
2022-10-20T04:20:34.157Z,6.03
2022-10-20T04:23:05.857Z,6.13
2022-10-20T04:25:40.791Z,6.77
2022-10-20T04:28:13.429Z,5.47
2022-10-20T04:30:46.507Z,6.13
2022-10-20T04:33:18.228Z,5.73
2022-10-20T04:38:22.616Z,6.20
2022-10-20T04:40:58.092Z,5.93
2022-10-20T04:43:33.590Z,6.10
2022-10-20T04:46:08.430Z,6.53
2022-10-20T04:48:43.363Z,6.07
2022-10-20T04:51:16.204Z,6.00
2022-10-20T04:53:48.062Z,8.93
2022-10-20T04:56:21.328Z,9.17
2022-10-20T04:58:55.815Z,7.60
2022-10-20T05:01:29.446Z,6.43
2022-10-20T05:04:01.211Z,6.63
2022-10-20T05:06:33.696Z,5.87
2022-10-20T05:09:06.936Z,6.07
2022-10-20T05:11:38.780Z,6.37
2022-10-20T05:14:10.543Z,5.93
2022-10-20T05:16:42.302Z,6.10
2022-10-20T05:19:13.983Z,5.70
2022-10-20T05:21:45.839Z,5.70
2022-10-20T05:24:21.331Z,6.13
2022-10-20T05:26:54.506Z,5.57
2022-10-20T05:29:26.243Z,6.20
2022-10-20T05:31:57.944Z,7.33
2022-10-20T05:34:29.764Z,6.90
2022-10-20T05:37:01.576Z,10.20
2022-10-20T05:39:33.357Z,7.20
2022-10-20T05:42:05.191Z,8.17
2022-10-20T05:44:37.443Z,7.50
2022-10-20T05:47:09.158Z,6.23
2022-10-20T05:49:40.858Z,6.67
2022-10-20T05:52:12.549Z,6.67
2022-10-20T05:54:44.261Z,6.60
2022-10-20T05:57:15.990Z,5.20
2022-10-20T05:59:47.948Z,5.60
2022-10-20T06:02:20.816Z,6.57
2022-10-20T06:04:52.508Z,5.50
2022-10-20T06:07:24.260Z,6.17
2022-10-20T06:09:55.967Z,6.03
2022-10-20T06:12:27.695Z,5.57
2022-10-20T06:14:59.388Z,6.27
2022-10-20T06:17:31.094Z,5.83
2022-10-20T06:20:03.466Z,6.23
2022-10-20T06:22:35.692Z,7.00
2022-10-20T06:25:08.152Z,7.90
2022-10-20T06:27:39.855Z,8.90
2022-10-20T06:30:11.846Z,8.23
2022-10-20T06:32:43.583Z,7.10
2022-10-20T06:35:15.355Z,6.83
2022-10-20T06:37:47.062Z,7.57
2022-10-20T06:40:18.788Z,7.70
2022-10-20T06:42:50.592Z,8.47
2022-10-20T06:45:22.327Z,9.40
2022-10-20T06:47:54.050Z,9.23
2022-10-20T06:50:25.809Z,10.23
2022-10-20T06:52:57.538Z,11.13
2022-10-20T06:55:29.306Z,12.70
2022-10-20T06:58:01.137Z,11.93
2022-10-20T07:00:32.850Z,12.17
2022-10-20T07:03:04.588Z,9.70
2022-10-20T07:05:36.280Z,9.97
2022-10-20T07:08:07.985Z,8.50
2022-10-20T07:10:39.693Z,7.00
2022-10-20T07:13:11.403Z,6.90
2022-10-20T07:15:43.099Z,6.70
2022-10-20T07:18:15.242Z,6.87
2022-10-20T07:20:47.037Z,6.93
2022-10-20T07:23:18.871Z,6.47
2022-10-20T07:25:50.613Z,7.07
2022-10-20T07:28:22.411Z,6.50
2022-10-20T07:30:54.107Z,6.40
2022-10-20T07:33:25.813Z,6.33
2022-10-20T07:35:57.732Z,7.20
2022-10-20T07:38:29.428Z,6.47
2022-10-20T07:41:02.914Z,6.90
2022-10-20T07:43:35.648Z,6.87
2022-10-20T07:46:08.213Z,7.23
2022-10-20T07:48:40.523Z,7.13
2022-10-20T07:51:28.308Z,5.77
2022-10-20T07:54:07.262Z,6.27
2022-10-20T07:56:41.608Z,6.50
2022-10-20T07:59:14.228Z,7.50
2022-10-20T08:01:46.677Z,7.00
2022-10-20T08:04:18.447Z,7.27
2022-10-20T08:06:50.165Z,5.63
2022-10-20T08:09:21.889Z,5.60
2022-10-20T08:11:55.556Z,6.07
2022-10-20T08:14:31.741Z,10.80
2022-10-20T08:17:04.177Z,6.00
2022-10-20T08:19:42.865Z,6.20
2022-10-20T08:22:16.053Z,9.53
2022-10-20T08:24:47.854Z,5.50
2022-10-20T08:27:19.629Z,5.07
2022-10-20T08:30:00.302Z,6.20
2022-10-20T08:32:43.229Z,7.27
2022-10-20T08:35:14.939Z,7.17
2022-10-20T08:37:46.648Z,9.10
2022-10-20T08:40:25.365Z,5.07
2022-10-20T08:42:57.470Z,4.67
2022-10-20T08:45:29.378Z,6.37
2022-10-20T08:48:02.404Z,5.80
2022-10-20T08:50:34.424Z,4.73
2022-10-20T08:53:06.221Z,4.40
2022-10-20T08:55:38.143Z,4.40
2022-10-20T08:58:21.160Z,4.80
2022-10-20T09:00:59.479Z,7.73
2022-10-20T09:03:33.249Z,7.33
2022-10-20T09:06:14.034Z,6.90
2022-10-20T09:08:46.951Z,5.30
2022-10-20T09:11:25.592Z,5.00
2022-10-20T09:13:57.403Z,4.20
2022-10-20T09:16:42.111Z,8.77
2022-10-20T09:19:22.316Z,5.20
2022-10-20T09:21:58.628Z,4.63
2022-10-20T09:24:31.738Z,4.67
2022-10-20T09:27:29.750Z,10.70
2022-10-20T09:30:30.435Z,5.57
2022-10-20T09:33:25.907Z,5.63
2022-10-20T09:36:14.676Z,5.10
2022-10-20T09:38:51.646Z,5.50
2022-10-20T09:41:30.780Z,4.93
2022-10-20T09:44:07.971Z,5.20
2022-10-20T09:46:45.396Z,5.93
2022-10-20T09:49:33.805Z,6.70
2022-10-20T09:52:22.045Z,4.70
2022-10-20T09:55:00.527Z,4.07
2022-10-20T09:57:32.600Z,4.10
2022-10-20T10:00:25.224Z,5.30
2022-10-20T10:03:14.688Z,5.33
2022-10-20T10:05:48.748Z,4.40
2022-10-20T10:08:22.738Z,5.23
2022-10-20T10:11:05.873Z,4.50
2022-10-20T10:13:44.407Z,4.30
2022-10-20T10:16:19.419Z,4.90
2022-10-20T10:19:16.874Z,4.20
2022-10-20T10:21:53.837Z,5.70
2022-10-20T10:24:46.374Z,5.47
2022-10-20T10:27:38.430Z,4.00
2022-10-20T10:30:30.647Z,4.10
2022-10-20T10:33:02.591Z,4.10
2022-10-20T10:35:44.204Z,4.90
2022-10-20T10:38:15.980Z,5.40
2022-10-20T10:41:08.607Z,5.37
2022-10-20T10:44:04.730Z,4.30
2022-10-20T10:47:01.707Z,4.33
2022-10-20T10:50:00.373Z,6.00
2022-10-20T10:52:39.706Z,4.90
2022-10-20T10:55:47.117Z,4.67
2022-10-20T10:58:31.502Z,4.30
2022-10-20T11:01:05.971Z,4.27
2022-10-20T11:04:15.269Z,4.90
2022-10-20T11:07:17.979Z,3.90
2022-10-20T11:10:03.271Z,7.17
2022-10-20T11:12:58.160Z,8.87
2022-10-20T11:16:00.075Z,4.60
2022-10-20T11:18:53.024Z,3.90
2022-10-20T11:21:58.806Z,3.77
2022-10-20T11:24:55.503Z,3.40
2022-10-20T11:27:33.737Z,4.57
2022-10-20T11:30:18.246Z,4.03
2022-10-20T11:33:19.627Z,6.10
2022-10-20T11:35:54.079Z,3.00
2022-10-20T11:38:49.830Z,9.70
2022-10-20T11:41:27.640Z,5.30
2022-10-20T11:44:12.302Z,3.50
2022-10-20T11:47:02.780Z,3.47
2022-10-20T11:49:34.747Z,3.03
2022-10-20T11:52:29.393Z,3.13
2022-10-20T11:55:20.028Z,3.80
2022-10-20T11:58:01.285Z,2.63
2022-10-20T12:00:49.945Z,3.53
2022-10-20T12:03:45.835Z,3.13
2022-10-20T12:06:23.376Z,2.50
2022-10-20T12:09:37.882Z,2.77
2022-10-20T12:12:37.987Z,3.53
2022-10-20T12:15:22.443Z,4.00
2022-10-20T12:17:57.509Z,6.07
2022-10-20T12:20:29.166Z,3.17
2022-10-20T12:23:02.520Z,2.83
2022-10-20T12:25:38.018Z,2.70
2022-10-20T12:28:25.227Z,3.40
2022-10-20T12:31:02.898Z,4.33
2022-10-20T12:33:59.378Z,2.20
2022-10-20T12:36:40.208Z,4.40
2022-10-20T12:39:11.870Z,3.63
2022-10-20T12:41:56.160Z,2.37
2022-10-20T12:44:32.119Z,5.67
2022-10-20T12:47:07.274Z,2.30
2022-10-20T12:49:45.222Z,3.90
2022-10-20T12:52:23.696Z,3.00
2022-10-20T12:55:05.046Z,2.87
2022-10-20T12:57:42.857Z,6.50
2022-10-20T13:00:21.428Z,3.33
2022-10-20T13:02:57.472Z,4.80
2022-10-20T13:05:43.981Z,3.03
2022-10-20T13:08:18.839Z,2.83
2022-10-20T13:10:53.765Z,2.40
2022-10-20T13:13:25.502Z,2.67
2022-10-20T13:15:57.708Z,1.90
2022-10-20T13:18:34.069Z,2.13
2022-10-20T13:21:22.936Z,2.20
2022-10-20T13:24:00.959Z,2.17
2022-10-20T13:26:44.128Z,3.50
2022-10-20T13:29:35.484Z,3.20
2022-10-20T13:32:22.969Z,2.27
2022-10-20T13:35:20.326Z,2.27
2022-10-20T13:37:57.548Z,2.10
2022-10-20T13:43:57.768Z,1.60
2022-10-20T13:46:49.139Z,2.00
2022-10-20T13:49:58.766Z,1.70
2022-10-20T13:52:34.306Z,1.93
2022-10-20T13:55:08.233Z,2.00
2022-10-20T13:58:05.381Z,3.60
2022-10-20T14:00:37.262Z,1.83
2022-10-20T14:03:18.156Z,1.80
2022-10-20T14:05:49.869Z,1.80
2022-10-20T14:08:23.560Z,1.60
2022-10-20T14:11:04.510Z,1.80
2022-10-20T14:13:36.496Z,1.80
2022-10-20T14:16:29.041Z,1.67
2022-10-20T14:19:12.886Z,2.10
2022-10-20T14:21:49.202Z,2.10
2022-10-20T14:24:45.656Z,1.90
2022-10-20T14:27:24.527Z,1.77
2022-10-20T14:29:57.105Z,2.80
2022-10-20T14:32:31.173Z,2.33
2022-10-20T14:35:25.238Z,1.80
2022-10-20T14:38:15.229Z,2.00
2022-10-20T14:40:53.292Z,1.80
2022-10-20T14:43:47.296Z,7.53
2022-10-20T14:46:30.989Z,6.73
2022-10-20T14:49:03.381Z,2.00
2022-10-20T14:51:48.064Z,1.67
2022-10-20T14:54:19.799Z,1.60
2022-10-20T14:56:54.443Z,3.43
2022-10-20T14:59:27.599Z,1.70
2022-10-20T15:02:19.171Z,2.23
2022-10-20T15:04:54.011Z,1.50
2022-10-20T15:07:34.610Z,2.00
2022-10-20T15:10:09.592Z,1.70
2022-10-20T15:12:48.054Z,3.37
2022-10-20T15:15:27.817Z,1.93
2022-10-20T15:18:08.071Z,1.80
2022-10-20T15:20:41.995Z,2.10
2022-10-20T15:23:25.493Z,2.00
2022-10-20T15:26:05.661Z,1.80
2022-10-20T15:28:44.863Z,2.10
2022-10-20T15:31:29.524Z,2.07
2022-10-20T15:34:01.292Z,1.33
2022-10-20T15:36:33.893Z,1.97
2022-10-20T15:39:05.654Z,2.67
2022-10-20T15:41:37.889Z,3.03
2022-10-20T15:44:17.409Z,2.23
2022-10-20T15:46:53.357Z,2.13
2022-10-20T15:49:25.289Z,2.00
2022-10-20T15:51:57.035Z,2.13
2022-10-20T15:54:28.727Z,2.30
2022-10-20T15:57:00.447Z,3.70
2022-10-20T15:59:32.203Z,2.97
2022-10-20T16:02:03.949Z,3.73
2022-10-20T16:04:35.671Z,4.10
2022-10-20T16:07:07.369Z,4.83
2022-10-20T16:09:39.175Z,4.87
2022-10-20T16:12:11.126Z,5.27
2022-10-20T16:14:42.922Z,4.87
2022-10-20T16:17:14.685Z,5.27
2022-10-20T16:19:46.398Z,5.27
2022-10-20T16:22:18.196Z,5.43
2022-10-20T16:24:49.930Z,5.60
2022-10-20T16:27:22.167Z,5.70
2022-10-20T16:29:54.139Z,5.43
2022-10-20T16:32:25.956Z,6.73
2022-10-20T16:34:58.781Z,5.70
2022-10-20T16:37:32.041Z,6.23
2022-10-20T16:40:04.127Z,6.33
2022-10-20T16:42:35.820Z,5.47
2022-10-20T16:45:08.435Z,5.97
2022-10-20T16:47:40.355Z,6.63
2022-10-20T16:50:12.202Z,6.60
2022-10-20T16:52:43.973Z,5.80
2022-10-20T16:55:15.719Z,6.77
2022-10-20T16:57:47.456Z,8.17
2022-10-20T17:00:19.210Z,5.73
2022-10-20T17:02:52.941Z,5.63
2022-10-20T17:05:26.493Z,7.67
2022-10-20T17:07:58.547Z,7.17
2022-10-20T17:10:30.270Z,7.30
2022-10-20T17:13:01.971Z,7.57
2022-10-20T17:15:33.909Z,7.53
2022-10-20T17:18:05.814Z,7.17
2022-10-20T17:20:38.247Z,7.43
2022-10-20T17:23:09.986Z,6.37
2022-10-20T17:25:41.753Z,6.40
2022-10-20T17:28:13.497Z,5.87
2022-10-20T17:30:47.078Z,6.80
2022-10-20T17:33:18.785Z,5.57
2022-10-20T17:35:50.519Z,6.00
2022-10-20T17:38:23.143Z,5.77
2022-10-20T17:40:55.384Z,5.63
2022-10-20T17:43:27.940Z,5.20
2022-10-20T17:46:02.204Z,5.57
2022-10-20T17:48:35.531Z,5.60
2022-10-20T17:51:21.835Z,4.63
2022-10-20T17:53:56.689Z,4.80
2022-10-20T17:56:35.424Z,6.33
2022-10-20T17:59:09.328Z,7.40
2022-10-20T18:01:41.440Z,6.77
2022-10-20T18:04:15.898Z,6.63
2022-10-20T18:06:47.932Z,6.33
2022-10-20T18:09:19.687Z,5.50
2022-10-20T18:11:51.751Z,9.87
2022-10-20T18:14:23.492Z,7.03
2022-10-20T18:16:55.255Z,7.70
2022-10-20T18:19:27.236Z,14.83
2022-10-20T18:21:59.005Z,7.23
2022-10-20T18:24:30.824Z,6.23
2022-10-20T18:27:02.619Z,6.40
2022-10-20T18:29:34.530Z,7.60
2022-10-20T18:32:06.453Z,7.33
2022-10-20T18:34:38.984Z,6.83
2022-10-20T18:37:10.797Z,6.33
2022-10-20T18:39:42.713Z,6.10
2022-10-20T18:42:14.447Z,6.03
2022-10-20T18:44:46.278Z,5.57
2022-10-20T18:47:18.080Z,5.83
2022-10-20T18:49:49.806Z,6.30
2022-10-20T18:52:21.506Z,5.77
2022-10-20T18:54:53.455Z,6.00
2022-10-20T18:57:25.258Z,6.37
2022-10-20T18:59:57.000Z,5.80
2022-10-20T19:02:30.752Z,5.93
2022-10-20T19:05:03.948Z,6.83
2022-10-20T19:07:36.208Z,5.80
2022-10-20T19:10:08.605Z,5.77
2022-10-20T19:12:40.566Z,6.20
2022-10-20T19:15:12.449Z,6.23
2022-10-20T19:17:44.173Z,6.20
2022-10-20T19:20:16.018Z,5.67
2022-10-20T19:22:47.804Z,7.27
2022-10-20T19:25:19.630Z,5.70
2022-10-20T19:27:51.476Z,6.50
2022-10-20T19:33:00.776Z,6.23
2022-10-20T19:35:32.619Z,7.83
2022-10-20T19:38:04.403Z,8.17
2022-10-20T19:40:36.153Z,7.70
2022-10-20T19:43:07.923Z,7.27
2022-10-20T19:45:39.687Z,7.13
2022-10-20T19:48:11.439Z,6.30
2022-10-20T19:50:43.180Z,7.40
2022-10-20T19:53:14.895Z,6.87
2022-10-20T19:55:51.283Z,8.13
2022-10-20T19:58:23.645Z,7.00
2022-10-20T20:00:58.439Z,7.00
2022-10-20T20:03:30.662Z,7.33
2022-10-20T20:06:08.851Z,7.30
2022-10-20T20:08:40.641Z,7.90
2022-10-20T20:11:22.767Z,6.73
2022-10-20T20:14:00.126Z,7.40
2022-10-20T20:16:31.964Z,7.40
2022-10-20T20:19:04.070Z,7.80
2022-10-20T20:21:35.950Z,8.23
2022-10-20T20:24:07.796Z,7.57
2022-10-20T20:26:39.888Z,8.13
2022-10-20T20:29:11.964Z,7.67
2022-10-20T20:31:44.791Z,7.53
2022-10-20T20:34:16.657Z,6.80
2022-10-20T20:36:48.389Z,6.80
2022-10-20T20:39:20.105Z,7.40
2022-10-20T20:41:51.841Z,7.67
2022-10-20T20:47:00.194Z,6.97
2022-10-20T20:49:31.923Z,6.53
2022-10-20T20:52:03.938Z,6.03
2022-10-20T20:54:35.693Z,6.27
2022-10-20T20:57:07.412Z,5.97
2022-10-20T20:59:39.118Z,5.53
2022-10-20T21:02:10.977Z,5.77
2022-10-20T21:04:42.782Z,5.83
2022-10-20T21:07:14.528Z,6.50
2022-10-20T21:09:46.224Z,6.03
2022-10-20T21:12:17.953Z,5.53
2022-10-20T21:14:49.728Z,6.13
2022-10-20T21:17:21.553Z,4.97
2022-10-20T21:19:53.683Z,5.20
2022-10-20T21:22:25.420Z,5.53
2022-10-20T21:24:57.264Z,5.33
2022-10-20T21:27:29.151Z,4.73
2022-10-20T21:30:00.848Z,4.53
2022-10-20T21:32:32.550Z,5.33
2022-10-20T21:35:04.408Z,4.53
2022-10-20T21:37:36.113Z,5.37
2022-10-20T21:40:08.373Z,5.33
2022-10-20T21:42:40.395Z,5.03
2022-10-20T21:45:15.460Z,4.90
2022-10-20T21:47:54.843Z,4.77
2022-10-20T21:50:26.560Z,4.57
2022-10-20T21:52:58.269Z,3.87
2022-10-20T21:55:30.140Z,4.10
2022-10-20T21:58:01.902Z,4.43
2022-10-20T22:00:33.764Z,4.30
2022-10-20T22:03:05.521Z,4.40
2022-10-20T22:05:37.227Z,3.87
2022-10-20T22:08:09.018Z,4.50
2022-10-20T22:10:40.779Z,3.93
2022-10-20T22:13:12.662Z,4.60
2022-10-20T22:15:44.476Z,4.70
2022-10-20T22:18:16.271Z,4.33
2022-10-20T22:20:48.066Z,4.87
2022-10-20T22:23:19.960Z,4.80
2022-10-20T22:25:53.304Z,4.53
2022-10-20T22:28:25.674Z,4.57
2022-10-20T22:30:57.577Z,3.97
2022-10-20T22:33:29.365Z,4.93
2022-10-20T22:36:01.616Z,4.97
2022-10-20T22:38:33.456Z,5.37
2022-10-20T22:41:05.378Z,4.43
2022-10-20T22:43:37.190Z,4.63
2022-10-20T22:46:08.990Z,4.67
2022-10-20T22:48:40.791Z,5.10
2022-10-20T22:51:12.972Z,4.17
2022-10-20T22:53:44.933Z,4.67
2022-10-20T22:56:21.499Z,4.80
2022-10-20T22:58:54.405Z,4.70
2022-10-20T23:01:26.377Z,4.63
2022-10-20T23:03:58.287Z,4.83
2022-10-20T23:06:30.150Z,4.30
2022-10-20T23:09:02.052Z,4.77
2022-10-20T23:11:34.363Z,4.43
2022-10-20T23:14:06.153Z,5.00
2022-10-20T23:16:37.966Z,5.10
2022-10-20T23:19:09.754Z,4.30
2022-10-20T23:21:41.460Z,4.73
2022-10-20T23:24:13.143Z,4.83
2022-10-20T23:26:44.935Z,5.03
2022-10-20T23:29:16.700Z,6.57
2022-10-20T23:31:48.401Z,5.10
2022-10-20T23:34:20.216Z,5.13
2022-10-20T23:36:52.116Z,4.57
2022-10-20T23:39:24.040Z,5.40
2022-10-20T23:41:55.839Z,5.43
2022-10-20T23:44:27.579Z,4.77
2022-10-20T23:46:59.298Z,5.50
2022-10-20T23:49:31.175Z,5.10
2022-10-20T23:52:02.871Z,5.20
2022-10-20T23:54:34.598Z,6.00
2022-10-20T23:57:06.304Z,6.23
2022-10-20T23:59:37.989Z,5.80
